Time;durP1;ratioP1;P1;durP2;ratioP2;P2;SDS_P1;SDS_P2;PMS_P1;PMS_P2;Temp;Humidity;BMP_temperature;BMP_pressure;BME280_temperature;BME280_humidity;BME280_pressure;Samples;Min_cycle;Max_cycle;Signal;HPM_P1;HPM_P2
2021/03/20 00:03:02;;;;;;;10.45;9.55;;;4.40;87.80;;;;;;6064883;23;20172;-89
2021/03/20 00:26:19;;;;;;;9.95;9.23;;;4.70;59.00;;;;;;6068282;22;20217;-88
2021/03/20 00:28:45;;;;;;;9.00;8.30;;;4.70;60.00;;;;;;6156340;23;20155;-89
2021/03/20 00:31:15;;;;;;;9.70;8.43;;;4.70;61.40;;;;;;6181776;23;20139;-88
2021/03/20 00:33:52;;;;;;;9.10;8.40;;;4.80;59.90;;;;;;6187725;23;20164;-89
2021/03/20 00:37:17;;;;;;;9.80;8.95;;;4.60;60.60;;;;;;6122873;23;20138;-88
2021/03/20 00:40:47;;;;;;;8.75;7.90;;;6.20;61.00;;;;;;6087785;23;20188;-89
2021/03/20 00:43:45;;;;;;;7.97;7.47;;;6.90;62.30;;;;;;6094500;23;20169;-88
2021/03/20 00:47:06;;;;;;;7.35;6.95;;;6.90;61.60;;;;;;6084150;23;20154;-89
2021/03/20 00:49:47;;;;;;;7.05;6.65;;;6.80;60.50;;;;;;6094108;23;20176;-88
2021/03/20 00:52:56;;;;;;;6.00;5.80;;;6.60;59.70;;;;;;6048275;23;20182;-88
2021/03/20 00:55:51;;;;;;;6.32;5.88;;;6.40;59.50;;;;;;6178898;23;20136;-88
2021/03/20 00:58:48;;;;;;;6.93;6.35;;;4.90;59.10;;;;;;6185765;23;20171;-88
2021/03/20 01:01:59;;;;;;;5.97;5.57;;;6.30;61.60;;;;;;6211638;23;20156;-88
2021/03/20 01:31:04;;;;;;;5.80;5.40;;;3.30;58.00;;;;;;6230055;23;20194;-89
2021/03/20 01:54:23;;;;;;;4.45;4.15;;;3.10;59.10;;;;;;6205520;22;20186;-89
2021/03/20 01:57:37;;;;;;;4.30;4.10;;;2.40;58.20;;;;;;6272597;23;20146;-90
2021/03/20 02:04:01;;;;;;;4.95;4.65;;;4.50;60.70;;;;;;6260736;23;20185;-89
2021/03/20 02:13:38;;;;;;;4.03;3.75;;;2.70;69.10;;;;;;6254445;23;20177;-89
2021/03/20 02:16:40;;;;;;;5.03;4.15;;;;;;;;;;6267857;22;20155;-89
2021/03/20 02:22:53;;;;;;;3.88;3.67;;;2.30;90.20;;;;;;6273594;22;20145;-89
2021/03/20 02:26:03;;;;;;;3.85;3.42;;;2.20;74.60;;;;;;6211440;23;20167;-89
2021/03/20 02:33:14;;;;;;;3.67;3.30;;;2.20;72.90;;;;;;6271868;23;20205;-88
2021/03/20 02:36:09;;;;;;;3.20;3.10;;;2.70;73.70;;;;;;6064559;23;20203;-89
2021/03/20 02:56:09;;;;;;;2.70;2.60;;;2.20;72.50;;;;;;6099254;22;20217;-89
2021/03/20 02:59:13;;;;;;;2.80;2.70;;;2.10;71.00;;;;;;6091697;23;20182;-89
2021/03/20 03:02:21;;;;;;;3.17;2.97;;;2.00;70.60;;;;;;6156939;23;20548;-88
2021/03/20 03:05:22;;;;;;;3.17;2.97;;;1.90;74.30;;;;;;6064759;23;20244;-89
2021/03/20 03:58:27;;;;;;;;;;;;;;;;;;;;;
2021/03/20 04:38:04;;;;;;;2.55;2.55;;;1.00;72.20;;;;;;6243276;23;20143;-89
2021/03/20 04:41:03;;;;;;;3.45;3.10;;;1.00;71.70;;;;;;6242437;23;20163;-88
2021/03/20 04:43:57;;;;;;;2.63;2.53;;;0.90;70.70;;;;;;6217420;23;20170;-89
2021/03/20 04:46:44;;;;;;;3.08;2.88;;;0.80;69.90;;;;;;6215942;23;20211;-89
2021/03/20 04:49:55;;;;;;;2.97;2.78;;;0.90;70.00;;;;;;6208977;23;20159;-88
2021/03/20 05:04:01;;;;;;;;;;;;;;;;;;;;;
2021/03/20 05:10:29;;;;;;;4.32;4.03;;;0.50;71.60;;;;;;6182180;23;20191;-87
2021/03/20 05:13:53;;;;;;;;;;;;;;;;;;;;;
2021/03/20 05:32:21;;;;;;;2.80;2.80;;;0.40;72.80;;;;;;6152531;22;20201;-88
2021/03/20 05:34:55;;;;;;;7.05;3.58;;;0.40;75.30;;;;;;6304768;22;20127;-89
2021/03/20 05:38:19;;;;;;;3.20;3.00;;;0.40;71.60;;;;;;6275623;22;20149;-89
2021/03/20 05:41:15;;;;;;;5.07;3.20;;;0.10;75.50;;;;;;6303529;22;20127;-89
2021/03/20 05:44:18;;;;;;;5.40;3.38;;;0.00;75.70;;;;;;6275309;22;20123;-90
2021/03/20 05:47:08;;;;;;;3.35;3.13;;;0.00;80.20;;;;;;6303242;22;20142;-89
2021/03/20 05:50:34;;;;;;;2.85;2.75;;;0.00;80.10;;;;;;6300729;22;20154;-89
2021/03/20 05:53:16;;;;;;;3.38;3.17;;;0.10;83.40;;;;;;6303296;22;20258;-89
2021/03/20 05:56:22;;;;;;;3.08;2.88;;;0.30;80.30;;;;;;6276432;22;20166;-89
2021/03/20 05:59:13;;;;;;;3.60;3.40;;;0.50;83.20;;;;;;6231248;22;20171;-88
2021/03/20 06:02:16;;;;;;;2.83;2.72;;;0.50;83.50;;;;;;6275066;22;20141;-89
2021/03/20 06:04:55;;;;;;;2.88;2.60;;;0.70;79.00;;;;;;6302480;22;20138;-89
2021/03/20 06:07:49;;;;;;;7.88;2.95;;;0.80;81.30;;;;;;6278185;22;20189;-89
2021/03/20 06:10:48;;;;;;;3.40;3.20;;;0.80;81.60;;;;;;6274734;22;20130;-88
2021/03/20 06:13:49;;;;;;;3.00;2.90;;;0.70;77.90;;;;;;6305296;22;20185;-90
2021/03/20 06:17:16;;;;;;;4.45;2.67;;;0.80;78.10;;;;;;6279993;22;20157;-89
2021/03/20 06:20:11;;;;;;;4.18;3.75;;;0.90;78.40;;;;;;6279368;22;20143;-90
2021/03/20 06:23:18;;;;;;;3.63;3.35;;;1.00;77.50;;;;;;6304347;22;20193;-89
2021/03/20 06:26:38;;;;;;;2.97;2.88;;;1.10;78.50;;;;;;6303967;22;20200;-88
2021/03/20 06:30:16;;;;;;;3.78;3.50;;;1.00;78.10;;;;;;6293212;22;20150;-89
2021/03/20 06:37:25;;;;;;;3.85;3.10;;;1.50;77.50;;;;;;6305242;22;20138;-89
2021/03/20 06:40:50;;;;;;;3.72;3.60;;;2.40;72.30;;;;;;6304389;22;20165;-89
2021/03/20 06:44:01;;;;;;;3.20;3.10;;;3.40;67.40;;;;;;6258194;22;20134;-88
2021/03/20 06:47:18;;;;;;;3.65;3.45;;;3.90;64.10;;;;;;6274821;22;20150;-89
2021/03/20 06:50:39;;;;;;;3.97;3.67;;;4.30;65.60;;;;;;6298630;22;20154;-89
2021/03/20 07:00:52;;;;;;;;;;;;;;;;;;;;;
2021/03/20 07:04:03;;;;;;;3.78;3.42;;;3.00;66.20;;;;;;6233811;22;20137;-89
2021/03/20 07:10:21;;;;;;;3.25;3.13;;;2.70;66.10;;;;;;6187975;22;20275;-88
2021/03/20 07:16:18;;;;;;;3.70;3.50;;;2.70;68.00;;;;;;6227064;22;20262;-89
2021/03/20 07:19:20;;;;;;;4.75;4.35;;;2.80;70.40;;;;;;6217344;23;20434;-85
2021/03/20 07:24:32;;;;;;;3.20;2.95;;;2.80;64.90;;;;;;6145617;22;20212;-88
2021/03/20 07:27:38;;;;;;;3.67;3.45;;;3.00;65.70;;;;;;6117541;23;20164;-88
2021/03/20 07:30:34;;;;;;;3.65;3.35;;;3.10;66.40;;;;;;6115731;23;20158;-89
2021/03/20 07:37:05;;;;;;;3.70;3.53;;;3.30;64.80;;;;;;6118510;23;20169;-88
2021/03/20 07:40:40;;;;;;;3.60;3.40;;;3.20;64.20;;;;;;6105989;23;20142;-88
2021/03/20 07:44:02;;;;;;;8.75;3.05;;;3.60;63.90;;;;;;6074623;23;20154;-90
2021/03/20 07:49:20;;;;;;;3.65;3.40;;;5.30;57.20;;;;;;6080388;22;20201;-88
2021/03/20 07:52:10;;;;;;;3.88;3.58;;;5.70;54.50;;;;;;6081659;23;21247;-86
2021/03/20 07:54:37;;;;;;;3.17;3.08;;;;;;;;;;6215281;23;20181;-88
2021/03/20 08:05:55;;;;;;;4.30;4.00;;;;;;;;;;6240929;22;20318;-90
2021/03/20 08:12:20;;;;;;;3.67;3.57;;;10.90;45.60;;;;;;6071665;23;20814;-87
2021/03/20 08:20:36;;;;;;;4.80;4.63;;;8.30;44.20;;;;;;6081311;22;20198;-89
2021/03/20 08:26:25;;;;;;;3.60;3.47;;;8.80;43.50;;;;;;6224972;22;20190;-87
2021/03/20 08:29:29;;;;;;;3.80;3.60;;;9.20;41.30;;;;;;6175469;23;20441;-87
2021/03/20 08:32:36;;;;;;;3.65;3.53;;;10.00;40.40;;;;;;6213373;23;20394;-88
2021/03/20 08:35:33;;;;;;;3.97;3.77;;;12.40;39.90;;;;;;6241829;23;20207;-89
2021/03/20 08:38:59;;;;;;;6.87;4.07;;;9.80;40.00;;;;;;6215072;23;20390;-87
2021/03/20 08:42:05;;;;;;;4.77;4.47;;;10.90;39.40;;;;;;6201234;23;20391;-88
2021/03/20 08:44:38;;;;;;;9.73;4.83;;;;;;;;;;6193823;23;20400;-89
2021/03/20 08:47:48;;;;;;;3.70;3.50;;;11.90;49.00;;;;;;6117785;23;20430;-88
2021/03/20 08:50:36;;;;;;;4.50;4.10;;;;;;;;;;6237213;23;20382;-87
2021/03/20 08:53:46;;;;;;;4.80;4.40;;;12.70;32.60;;;;;;6212227;23;20445;-87
2021/03/20 08:56:18;;;;;;;3.97;3.87;;;9.80;41.50;;;;;;6238999;23;20343;-88
2021/03/20 09:04:32;;;;;;;7.60;4.93;;;12.00;33.10;;;;;;6107091;22;21174;-87
2021/03/20 09:07:44;;;;;;;4.60;3.60;;;11.50;34.50;;;;;;6090186;23;20421;-88
2021/03/20 09:16:03;;;;;;;4.17;4.07;;;10.60;35.00;;;;;;6088818;22;20623;-88
2021/03/20 09:18:30;;;;;;;4.07;3.77;;;10.70;35.10;;;;;;6100877;23;20399;-86
2021/03/20 09:21:53;;;;;;;3.47;3.38;;;10.40;34.60;;;;;;6060840;23;20391;-88
2021/03/20 09:24:47;;;;;;;3.80;3.57;;;13.20;35.80;;;;;;6088472;23;20210;-87
2021/03/20 09:31:39;;;;;;;4.55;4.10;;;10.80;32.80;;;;;;6086855;23;20383;-88
2021/03/20 09:37:06;;;;;;;3.60;3.30;;;11.90;32.00;;;;;;6110187;23;20441;-89
2021/03/20 09:39:54;;;;;;;3.47;3.30;;;14.40;32.20;;;;;;6087099;23;20394;-88
2021/03/20 09:42:29;;;;;;;4.47;4.17;;;13.50;27.60;;;;;;6109720;23;20424;-90
2021/03/20 09:45:20;;;;;;;3.50;3.30;;;13.60;26.90;;;;;;6210189;23;20386;-90
2021/03/20 09:47:50;;;;;;;5.23;3.37;;;14.40;27.30;;;;;;6105479;23;20417;-89
2021/03/20 09:50:42;;;;;;;3.57;3.33;;;14.10;29.30;;;;;;6083062;23;20478;-90
2021/03/20 09:53:08;;;;;;;3.70;3.50;;;12.60;26.20;;;;;;6102476;23;20540;-90
2021/03/20 09:55:46;;;;;;;2.77;2.67;;;15.20;31.90;;;;;;6109167;23;20374;-90
2021/03/20 09:58:19;;;;;;;2.93;2.90;;;13.80;25.60;;;;;;6215003;23;20161;-90
2021/03/20 10:04:27;;;;;;;3.63;3.33;;;16.80;30.40;;;;;;6082890;23;20430;-87
2021/03/20 10:07:30;;;;;;;3.30;3.10;;;13.90;29.50;;;;;;6057363;23;20471;-87
2021/03/20 10:10:42;;;;;;;4.70;4.30;;;14.30;31.60;;;;;;6100404;22;20446;-88
2021/03/20 10:13:23;;;;;;;3.43;3.10;;;16.40;31.40;;;;;;6204909;23;20470;-87
2021/03/20 10:16:03;;;;;;;5.93;3.37;;;15.70;31.20;;;;;;6206542;23;20399;-88
2021/03/20 10:18:55;;;;;;;3.30;3.07;;;12.80;28.50;;;;;;6176272;22;20465;-88
2021/03/20 10:23:58;;;;;;;2.43;2.43;;;12.90;27.20;;;;;;6057088;23;20450;-88
2021/03/20 10:27:07;;;;;;;3.27;3.00;;;12.70;27.30;;;;;;6115956;23;20405;-88
2021/03/20 10:29:36;;;;;;;2.83;2.73;;;14.90;27.10;;;;;;6143113;22;21430;-86
2021/03/20 10:38:21;;;;;;;;;;;;;;;;;;;;;
2021/03/20 10:43:31;;;;;;;2.30;2.30;;;13.30;24.90;;;;;;6103494;23;22486;31
2021/03/20 10:45:57;;;;;;;2.87;2.67;;;12.40;22.50;;;;;;6099772;23;20459;-87
2021/03/20 10:48:29;;;;;;;2.93;2.87;;;15.30;26.70;;;;;;6085508;23;20423;-88
2021/03/20 10:51:40;;;;;;;4.33;4.03;;;13.10;23.30;;;;;;6084939;23;20395;-88
2021/03/20 10:55:07;;;;;;;3.87;3.57;;;10.20;21.80;;;;;;6087197;23;20513;-87
2021/03/20 10:57:41;;;;;;;2.63;2.57;;;12.10;23.00;;;;;;6085955;23;20507;-86
2021/03/20 11:00:42;;;;;;;;;;;;;;;;;;;;;
2021/03/20 11:03:40;;;;;;;3.07;2.97;;;14.30;24.60;;;;;;6090984;23;20355;-89
2021/03/20 11:08:46;;;;;;;2.73;2.60;;;11.30;23.30;;;;;;6101558;23;20453;-88
2021/03/20 11:11:36;;;;;;;3.20;3.10;;;13.60;24.30;;;;;;6078300;23;20719;-87
2021/03/20 11:14:14;;;;;;;2.80;2.70;;;12.00;22.10;;;;;;6109061;23;20402;-87
2021/03/20 11:16:59;;;;;;;3.40;3.20;;;14.10;23.90;;;;;;6085184;23;20426;-88
2021/03/20 11:19:42;;;;;;;3.03;2.83;;;13.00;23.90;;;;;;6112909;23;20436;-87
2021/03/20 11:22:50;;;;;;;2.37;2.37;;;11.80;22.00;;;;;;6087250;23;20384;-87
2021/03/20 11:25:32;;;;;;;2.83;2.63;;;12.90;22.20;;;;;;6210673;23;20397;-88
2021/03/20 11:28:44;;;;;;;2.77;2.67;;;15.80;24.00;;;;;;6212494;23;20378;-90
2021/03/20 11:31:13;;;;;;;4.30;3.70;;;13.10;21.30;;;;;;6101865;23;20378;-87
2021/03/20 11:33:41;;;;;;;3.20;2.97;;;17.20;24.00;;;;;;6107652;23;20436;-87
2021/03/20 11:36:22;;;;;;;4.10;3.00;;;14.40;21.90;;;;;;6082702;23;20386;-88
2021/03/20 11:38:52;;;;;;;3.10;3.00;;;14.50;20.90;;;;;;6202503;23;20446;-87
2021/03/20 11:41:42;;;;;;;3.77;3.50;;;16.90;24.00;;;;;;6084005;23;20416;-89
2021/03/20 11:44:35;;;;;;;3.27;3.17;;;;;;;;;;6101129;23;20428;-88
2021/03/20 11:47:19;;;;;;;4.40;3.80;;;;;;;;;;6118091;23;20459;-87
2021/03/20 11:49:52;;;;;;;3.50;3.27;;;;;;;;;;6128480;23;20469;-87
2021/03/20 11:52:56;;;;;;;2.93;2.87;;;15.70;36.10;;;;;;6217076;23;20421;-85
2021/03/20 11:55:39;;;;;;;3.67;3.37;;;16.40;36.80;;;;;;6106375;23;20488;-88
2021/03/20 11:58:14;;;;;;;3.97;3.40;;;;;;;;;;6189683;23;20390;-89
2021/03/20 12:00:47;;;;;;;3.80;3.00;;;;;;;;;;6215154;23;20401;-88
2021/03/20 12:04:00;;;;;;;2.70;2.70;;;;;;;;;;6217412;23;20424;-89
2021/03/20 12:06:31;;;;;;;2.67;2.47;;;17.30;20.20;;;;;;6121568;23;20374;-87
2021/03/20 12:09:22;;;;;;;6.60;6.20;;;16.50;20.30;;;;;;6141845;22;20448;-87
2021/03/20 12:11:55;;;;;;;6.23;4.20;;;19.70;20.70;;;;;;6193046;23;20485;-88
2021/03/20 12:17:30;;;;;;;3.13;2.67;;;17.50;18.90;;;;;;6100864;23;20456;-88
2021/03/20 12:20:40;;;;;;;2.30;2.30;;;20.50;20.10;;;;;;6185514;23;20386;-89
2021/03/20 12:24:01;;;;;;;3.23;3.03;;;16.60;20.70;;;;;;6083368;22;20796;-89
2021/03/20 12:26:42;;;;;;;2.67;2.67;;;19.70;19.50;;;;;;6083706;22;20371;-89
2021/03/20 12:29:21;;;;;;;3.10;2.90;;;17.00;24.30;;;;;;6127693;22;20517;-87
2021/03/20 12:34:34;;;;;;;3.00;2.77;;;17.50;21.30;;;;;;6136591;22;20453;-89
2021/03/20 12:37:30;;;;;;;3.37;3.17;;;17.60;22.50;;;;;;6198649;23;20445;-89
2021/03/20 12:40:07;;;;;;;2.97;2.57;;;17.00;20.40;;;;;;6137710;22;20386;-89
2021/03/20 12:42:40;;;;;;;2.20;2.20;;;17.80;22.00;;;;;;6112987;23;20390;-89
2021/03/20 12:46:10;;;;;;;2.70;2.60;;;18.10;21.10;;;;;;6127627;23;20462;-89
2021/03/20 12:48:56;;;;;;;;;;;;;;;;;;;;;
2021/03/20 12:51:33;;;;;;;5.57;5.00;;;18.80;28.40;;;;;;6108322;23;20678;-90
2021/03/20 12:54:00;;;;;;;3.00;2.90;;;;;;;;;;6105410;23;20448;-93
2021/03/20 12:56:35;;;;;;;3.00;2.90;;;18.60;18.30;;;;;;6125984;23;20517;-89
2021/03/20 12:59:03;;;;;;;3.00;2.80;;;21.00;22.10;;;;;;6106514;23;20409;-89
2021/03/20 13:01:30;;;;;;;3.17;2.97;;;19.20;23.00;;;;;;6129614;23;20390;-88
2021/03/20 13:03:57;;;;;;;3.07;2.57;;;19.20;26.70;;;;;;6126585;23;20447;-89
2021/03/20 13:06:27;;;;;;;2.97;2.87;;;20.00;18.30;;;;;;6110342;23;20440;-90
2021/03/20 13:08:52;;;;;;;2.87;2.77;;;20.60;18.50;;;;;;6130363;23;20424;-90
2021/03/20 13:11:26;;;;;;;2.60;2.50;;;21.10;19.90;;;;;;6128869;23;20389;-91
2021/03/20 13:13:55;;;;;;;2.90;2.80;;;19.80;24.90;;;;;;6106495;23;20189;-92
2021/03/20 13:16:23;;;;;;;2.30;2.30;;;;;;;;;;6111142;23;20378;-89
2021/03/20 13:19:22;;;;;;;3.20;3.10;;;19.60;18.60;;;;;;6145088;22;20880;-89
2021/03/20 13:21:52;;;;;;;7.20;3.13;;;19.70;18.80;;;;;;6120097;23;20528;-87
2021/03/20 13:24:20;;;;;;;2.27;2.23;;;18.90;19.40;;;;;;6177497;23;20408;-87
2021/03/20 13:26:49;;;;;;;2.47;2.40;;;21.00;21.20;;;;;;6174212;23;20379;-90
2021/03/20 13:32:14;;;;;;;3.00;2.63;;;20.40;20.80;;;;;;6158471;23;20853;-90
2021/03/20 13:35:05;;;;;;;2.43;2.40;;;17.20;19.60;;;;;;6171603;23;20416;-92
2021/03/20 13:37:32;;;;;;;2.80;2.60;;;19.00;23.10;;;;;;6174597;23;20389;-86
2021/03/20 13:39:58;;;;;;;2.83;2.73;;;16.50;22.60;;;;;;6174669;23;20407;-88
2021/03/20 13:43:12;;;;;;;2.13;2.03;;;16.10;24.10;;;;;;6171677;23;20407;-89
2021/03/20 13:45:38;;;;;;;2.63;2.33;;;16.00;24.80;;;;;;6166288;23;20172;-90
2021/03/20 13:48:07;;;;;;;3.10;3.00;;;15.10;26.50;;;;;;6196649;23;20442;-87
2021/03/20 13:50:36;;;;;;;2.30;2.30;;;;;;;;;;6264975;22;20404;-87
2021/03/20 13:53:37;;;;;;;5.20;4.80;;;14.60;20.90;;;;;;6147481;22;22143;-87
2021/03/20 13:56:06;;;;;;;3.20;3.07;;;19.80;27.20;;;;;;6209594;22;20561;-86
2021/03/20 13:58:37;;;;;;;3.37;3.13;;;14.70;21.70;;;;;;6261881;22;20410;-87
2021/03/20 14:01:04;;;;;;;2.67;2.47;;;16.00;23.20;;;;;;6238601;22;20394;-85
2021/03/20 14:03:31;;;;;;;2.97;2.87;;;18.40;22.90;;;;;;6238449;22;20424;-90
2021/03/20 14:06:10;;;;;;;3.00;2.90;;;17.50;22.70;;;;;;6265931;23;20373;-90
2021/03/20 14:08:44;;;;;;;3.00;2.90;;;15.00;19.60;;;;;;6253418;23;20479;-88
2021/03/20 14:11:11;;;;;;;3.67;3.57;;;19.60;22.80;;;;;;6237843;23;20407;-85
2021/03/20 14:14:04;;;;;;;3.70;3.57;;;19.30;23.00;;;;;;6211530;23;20437;-91
2021/03/20 14:16:32;;;;;;;3.13;3.03;;;16.70;22.70;;;;;;6236310;23;20386;-91
2021/03/20 14:18:57;;;;;;;3.30;3.20;;;17.30;25.00;;;;;;6240098;22;20394;-90
2021/03/20 14:21:29;;;;;;;3.10;3.03;;;16.00;23.30;;;;;;6259392;22;20602;-89
2021/03/20 14:24:01;;;;;;;3.03;2.93;;;15.40;23.50;;;;;;6162327;22;20434;-90
2021/03/20 14:26:39;;;;;;;4.13;2.60;;;17.90;26.60;;;;;;6114463;23;20412;-86
2021/03/20 14:29:17;;;;;;;3.73;3.53;;;13.70;24.10;;;;;;6094873;22;20767;-88
2021/03/20 14:32:23;;;;;;;3.30;3.10;;;13.30;23.50;;;;;;6089606;23;20401;-91
2021/03/20 14:35:04;;;;;;;2.93;2.83;;;13.10;27.50;;;;;;6088964;23;20730;-87
2021/03/20 14:37:38;;;;;;;2.83;2.77;;;15.50;27.70;;;;;;6087372;23;20419;-89
2021/03/20 14:40:32;;;;;;;3.75;3.40;;;12.70;26.70;;;;;;6091391;23;20384;-88
2021/03/20 14:48:36;;;;;;;3.10;3.00;;;12.40;25.10;;;;;;6105706;23;20469;-87
2021/03/20 14:59:36;;;;;;;3.70;3.60;;;11.30;25.10;;;;;;6102534;23;20445;-89
2021/03/20 15:04:36;;;;;;;4.00;3.72;;;11.70;27.90;;;;;;6083977;23;20206;-90
2021/03/20 15:07:08;;;;;;;4.30;3.83;;;11.70;29.20;;;;;;6182680;23;20207;-88
2021/03/20 15:12:12;;;;;;;3.50;3.27;;;11.60;26.10;;;;;;6088060;23;20453;-86
2021/03/20 15:14:41;;;;;;;2.88;2.88;;;13.10;31.90;;;;;;6110646;23;20783;-88
2021/03/20 15:22:38;;;;;;;4.50;4.20;;;11.50;26.80;;;;;;6076491;23;20199;-87
2021/03/20 15:39:10;;;;;;;5.38;5.10;;;11.00;36.00;;;;;;6092717;23;20225;-89
2021/03/20 15:49:24;;;;;;;5.53;5.00;;;10.60;37.40;;;;;;6206399;22;20253;-89
2021/03/20 15:51:51;;;;;;;5.27;4.90;;;11.10;39.30;;;;;;6207683;23;20202;-88
2021/03/20 15:56:55;;;;;;;5.28;4.97;;;10.20;38.40;;;;;;6056518;23;20197;-89
2021/03/20 15:59:20;;;;;;;6.35;5.63;;;10.10;38.60;;;;;;6188362;22;20230;-89
2021/03/20 16:01:47;;;;;;;6.72;5.13;;;10.10;39.80;;;;;;6240067;22;20205;-90
2021/03/20 16:04:13;;;;;;;11.00;4.70;;;10.00;39.70;;;;;;6237587;23;20147;-90
2021/03/20 16:06:48;;;;;;;7.23;3.70;;;9.90;39.90;;;;;;6212727;23;20155;-89
2021/03/20 16:09:25;;;;;;;3.72;3.47;;;10.00;36.50;;;;;;6212173;23;20468;-87
2021/03/20 16:12:05;;;;;;;4.07;3.78;;;10.00;36.80;;;;;;6239754;23;20136;-88
2021/03/20 16:17:11;;;;;;;3.95;3.75;;;10.10;37.10;;;;;;6087195;23;20183;-87
2021/03/20 16:19:43;;;;;;;4.77;4.57;;;9.90;40.20;;;;;;6087342;23;20210;-89
2021/03/20 16:22:18;;;;;;;4.40;4.30;;;11.50;39.70;;;;;;6064504;23;20251;-88
2021/03/20 16:27:27;;;;;;;4.43;3.77;;;9.80;42.90;;;;;;5979755;22;3337729;-87
2021/03/20 16:29:59;;;;;;;5.95;5.45;;;9.80;44.90;;;;;;6069443;23;20134;-89
2021/03/20 16:32:25;;;;;;;5.28;5.07;;;9.70;45.70;;;;;;6084825;23;20146;-88
2021/03/20 16:34:50;;;;;;;4.50;4.20;;;9.70;47.30;;;;;;6086691;23;20212;-89
2021/03/20 16:37:17;;;;;;;9.93;6.80;;;9.70;42.90;;;;;;6112152;23;20382;-89
2021/03/20 16:39:52;;;;;;;4.50;4.30;;;9.60;42.90;;;;;;6085934;23;20162;-88
2021/03/20 16:42:20;;;;;;;4.20;3.90;;;9.70;43.50;;;;;;6190890;23;20160;-87
2021/03/20 16:44:49;;;;;;;6.28;5.78;;;9.90;42.40;;;;;;6212068;23;20157;-89
2021/03/20 16:47:25;;;;;;;4.43;4.22;;;9.50;37.80;;;;;;6088979;23;20150;-88
2021/03/20 16:49:54;;;;;;;4.63;4.43;;;10.70;36.60;;;;;;6209659;23;20157;-89
2021/03/20 16:52:25;;;;;;;4.78;4.55;;;10.00;35.50;;;;;;6210154;23;20155;-90
2021/03/20 16:55:08;;;;;;;4.70;4.32;;;9.40;37.00;;;;;;6112506;23;20188;-87
2021/03/20 16:57:36;;;;;;;5.15;4.85;;;10.90;34.40;;;;;;6183035;23;20261;-90
2021/03/20 17:00:11;;;;;;;5.00;4.70;;;9.20;35.60;;;;;;6111688;23;20146;-89
2021/03/20 17:02:40;;;;;;;8.05;4.38;;;11.50;35.10;;;;;;6087377;23;20224;-89
2021/03/20 17:05:14;;;;;;;10.52;5.03;;;9.10;33.40;;;;;;6089345;23;20158;-89
2021/03/20 17:08:03;;;;;;;6.05;5.10;;;9.20;35.60;;;;;;6111910;23;20146;-89
2021/03/20 17:10:31;;;;;;;4.70;4.45;;;9.30;33.50;;;;;;6109964;23;20150;-89
2021/03/20 17:13:00;;;;;;;5.28;4.80;;;9.10;35.20;;;;;;6086040;23;20178;-89
2021/03/20 17:15:26;;;;;;;4.82;4.60;;;9.30;35.20;;;;;;6086807;23;20240;-89
2021/03/20 17:17:52;;;;;;;5.50;5.10;;;9.30;35.40;;;;;;6086139;23;20157;-89
2021/03/20 17:20:24;;;;;;;5.90;5.40;;;9.30;35.80;;;;;;6109681;23;20165;-88
2021/03/20 17:23:16;;;;;;;4.57;4.43;;;9.20;35.80;;;;;;6091078;23;20210;-88
2021/03/20 17:28:53;;;;;;;;;;;;;;;;;;;;;
2021/03/20 17:33:54;;;;;;;5.65;5.25;;;9.00;35.00;;;;;;6106197;23;20205;-87
2021/03/20 17:36:21;;;;;;;5.37;5.00;;;9.00;36.20;;;;;;6103342;23;20146;-86
2021/03/20 17:44:15;;;;;;;5.18;4.95;;;9.00;35.80;;;;;;6171368;23;20187;-87
2021/03/20 17:47:13;;;;;;;5.38;4.95;;;11.00;38.60;;;;;;6246544;22;20222;-88
2021/03/20 17:50:05;;;;;;;8.00;4.93;;;11.50;36.30;;;;;;6260868;22;20134;-88
2021/03/20 17:52:31;;;;;;;4.97;4.55;;;10.00;35.10;;;;;;6227913;22;20203;-86
2021/03/20 17:58:47;;;;;;;5.47;5.18;;;10.10;36.00;;;;;;6239022;22;20490;-89
2021/03/20 18:01:26;;;;;;;4.85;4.55;;;9.00;35.70;;;;;;6241450;22;20193;-87
2021/03/20 18:04:26;;;;;;;5.03;4.82;;;9.40;36.40;;;;;;6205287;22;20187;-90
2021/03/20 18:23:45;;;;;;;5.90;5.50;;;8.80;37.90;;;;;;6111684;22;20549;-88
2021/03/20 18:28:47;;;;;;;6.15;5.65;;;8.70;38.90;;;;;;6091073;23;20196;-87
2021/03/20 18:33:50;;;;;;;5.05;4.85;;;8.80;38.50;;;;;;6114774;22;20205;-88
2021/03/20 18:36:22;;;;;;;5.60;5.07;;;8.70;39.60;;;;;;6245806;22;20178;-88
2021/03/20 18:39:01;;;;;;;5.40;5.10;;;8.60;40.30;;;;;;6271287;23;20147;-88
2021/03/20 18:41:52;;;;;;;4.40;4.30;;;9.40;38.90;;;;;;6244733;23;20127;-87
2021/03/20 18:44:25;;;;;;;6.00;5.15;;;7.50;39.10;;;;;;6243769;23;20146;-87
2021/03/20 18:49:33;;;;;;;6.40;5.95;;;8.70;37.50;;;;;;6119419;22;20194;-89
2021/03/20 18:59:50;;;;;;;5.75;5.45;;;8.60;39.10;;;;;;6102120;23;20185;-86
2021/03/20 19:02:44;;;;;;;6.05;5.75;;;8.50;40.50;;;;;;6120166;23;20139;-87
2021/03/20 19:13:07;;;;;;;5.82;5.47;;;8.50;40.00;;;;;;6110574;23;20212;-87
2021/03/20 19:18:09;;;;;;;5.65;5.35;;;8.60;39.90;;;;;;6107023;23;20219;-86
2021/03/20 19:23:36;;;;;;;6.18;5.65;;;8.50;40.90;;;;;;6104081;23;20205;-86
2021/03/20 19:26:20;;;;;;;7.55;6.85;;;8.50;41.90;;;;;;6112308;23;20205;-86
2021/03/20 19:28:55;;;;;;;6.80;6.35;;;8.50;42.20;;;;;;6121091;23;20274;-88
2021/03/20 19:41:52;;;;;;;6.97;6.45;;;8.60;41.30;;;;;;6105758;23;20186;-86
2021/03/20 19:46:55;;;;;;;6.82;6.22;;;8.60;42.40;;;;;;6097568;23;20192;-87
2021/03/20 19:50:17;;;;;;;7.40;6.70;;;8.50;43.90;;;;;;6120170;23;20182;-87
2021/03/20 19:52:43;;;;;;;7.20;6.60;;;10.80;42.60;;;;;;6114033;22;20186;-88
2021/03/20 20:04:30;;;;;;;8.40;7.60;;;8.50;44.30;;;;;;6076397;22;20312;-88
2021/03/20 20:47:32;;;;;;;9.40;8.50;;;8.30;45.00;;;;;;6100430;23;20212;-88
2021/03/20 21:41:57;;;;;;;7.03;6.53;;;7.60;76.20;;;;;;6175144;22;20238;-86
